Hayase Maru — JD2583 — position and weather

sailwx.info

Track history (hours):
 
Tides and Currents Weather Stations Pressure Air Temp Water Temp Dewpoint Dewpoint Depression Visibility Wind Speed Wind Dir Waves Ship Positions

Hayase Maru

Last reported at 2016-Jun-25 13:28 UTC. Time now 2016-Jun-25 14:20 UTC.
Position N 35°00' E 139°50'.

Length 73 m; draft 4 m.

Type: Ship. MMSI: 431000395.

Date/timePositionNaut miles runAvg speedWind from/ knotsBaromVisibWave heightAir tempDewpointWater temp
2016-Jun-25 13:28N 35°00' E 139°50'0 0.0
2016-Jun-25 12:07N 35°00' E 139°50'0 0.0
2016-Jun-25 11:33N 35°00' E 139°50'0 0.0
2016-Jun-25 09:10N 35°00' E 139°50'0 0.0
2016-Jun-25 08:05N 35°00' E 139°50'0 0.0
2016-Jun-25 04:14N 35°00' E 139°50'0 0.0
2016-Jun-25 01:17N 35°00' E 139°50'0 0.0
2016-Jun-24 21:26N 35°00' E 139°50'0 0.0
2016-Jun-24 20:32N 35°00' E 139°50'0 0.0
2016-Jun-24 19:31N 35°00' E 139°50'0 0.0
2016-Jun-24 17:30N 35°00' E 139°50'0 0.0
2016-Jun-24 13:27N 35°00' E 139°50'5 1.6
2016-Jun-24 10:30N 34°59' E 139°45'12 9.7
2016-Jun-24 09:13N 34°53' E 139°57'812.1
2016-Jun-24 08:32N 34°58' E 140°06'4511.1
2016-Jun-24 04:28N 35°30' E 140°44'27 9.3
2016-Jun-24 01:33N 35°57' E 140°44'4 0.2
2016-Jun-23 07:33N 35°56' E 140°40'0 0.0
2016-Jun-22 22:24N 35°56' E 140°40'0 0.0
2016-Jun-22 21:33N 35°56' E 140°40'33 7.9
2016-Jun-22 17:26N 35°23' E 140°38'2812.4
2016-Jun-22 15:08N 35°02' E 140°14'1113.2
2016-Jun-22 14:19N 34°56' E 140°03'17 8.2
2016-Jun-22 12:14N 35°03' E 139°44'811.9
2016-Jun-22 11:33N 35°11' E 139°46'1110.7
2016-Jun-22 10:34N 35°21' E 139°42'1211.5
2016-Jun-22 09:33N 35°30' E 139°51'1110.8
2016-Jun-22 08:34N 35°40' E 139°57'1 0.6
2016-Jun-22 07:04N 35°41' E 139°57'0 0.2
2016-Jun-22 06:33N 35°41' E 139°58'3 3.2
2016-Jun-22 05:29N 35°37' E 139°58'0 0.0
2016-Jun-22 04:29N 35°37' E 139°58'4 4.0
2016-Jun-22 03:33N 35°34' E 139°56'1110.9
2016-Jun-22 02:33N 35°24' E 139°50'3 0.2
2016-Jun-21 13:31N 35°21' E 139°51'0 0.2
2016-Jun-21 11:14N 35°22' E 139°51'0 0.0
2016-Jun-21 10:32N 35°22' E 139°51'0 0.0
2016-Jun-21 09:29N 35°22' E 139°51'0 0.0
2016-Jun-21 08:32N 35°22' E 139°51'0 0.0
2016-Jun-21 07:32N 35°22' E 139°51'0 0.0
2016-Jun-21 04:29N 35°22' E 139°51'0 0.0
2016-Jun-21 03:32N 35°22' E 139°51'1 0.8
2016-Jun-21 02:33N 35°22' E 139°50'1211.8
2016-Jun-21 01:33N 35°33' E 139°54'7 5.3
2016-Jun-21 00:10N 35°40' E 139°56'0 0.0
2016-Jun-20 23:22N 35°40' E 139°56'0 0.0
2016-Jun-20 22:28N 35°40' E 139°56'0 0.0
2016-Jun-20 21:16N 35°40' E 139°56'0 0.0
2016-Jun-20 20:22N 35°40' E 139°56'0 0.0
2016-Jun-20 19:28N 35°40' E 139°56'0 0.0
2016-Jun-20 18:22N 35°40' E 139°56'0 0.0
2016-Jun-20 17:28N 35°40' E 139°56'0 0.0
2016-Jun-20 16:28N 35°40' E 139°56'0 0.0
2016-Jun-20 14:28N 35°40' E 139°56'0 0.0
2016-Jun-20 13:28N 35°40' E 139°56'0 0.0
2016-Jun-20 12:16N 35°40' E 139°56'0 0.0
2016-Jun-20 11:28N 35°40' E 139°56'0 0.0
2016-Jun-20 10:28N 35°40' E 139°56'0 0.0
2016-Jun-20 09:16N 35°40' E 139°56'0 0.0
2016-Jun-20 07:28N 35°40' E 139°56'0 0.1
2016-Jun-20 06:31N 35°40' E 139°56'0 0.0
2016-Jun-20 05:28N 35°40' E 139°56'0 0.0
2016-Jun-20 04:31N 35°40' E 139°56'0 0.0
2016-Jun-20 03:28N 35°40' E 139°56'0 0.0
2016-Jun-20 02:25N 35°40' E 139°56'0 0.0
2016-Jun-20 01:22N 35°40' E 139°56'0 0.0
2016-Jun-20 00:22N 35°40' E 139°56'0 0.0
2016-Jun-19 23:28N 35°40' E 139°56'1 0.9
2016-Jun-19 22:33N 35°40' E 139°57'3 2.2
2016-Jun-19 21:20N 35°37' E 139°58'0 0.0
2016-Jun-19 20:32N 35°37' E 139°58'0 0.0
2016-Jun-19 19:32N 35°37' E 139°58'0 0.0
2016-Jun-19 18:20N 35°37' E 139°58'0 0.0
2016-Jun-19 17:32N 35°37' E 139°58'0 0.0
2016-Jun-19 16:32N 35°37' E 139°58'0 0.0
2016-Jun-19 15:32N 35°37' E 139°58'0 0.0
2016-Jun-19 14:26N 35°37' E 139°58'0 0.0
2016-Jun-19 13:32N 35°37' E 139°58'0 0.0
2016-Jun-19 12:20N 35°37' E 139°58'0 0.0
2016-Jun-19 11:32N 35°37' E 139°58'0 0.0
2016-Jun-19 10:32N 35°37' E 139°58'0 0.0
2016-Jun-19 09:29N 35°37' E 139°58'0 0.0
2016-Jun-19 08:14N 35°37' E 139°58'0 0.0
2016-Jun-19 07:29N 35°37' E 139°58'0 0.0
2016-Jun-19 06:32N 35°37' E 139°58'1 0.7
2016-Jun-19 04:33N 35°36' E 139°57'1212.1
2016-Jun-19 03:33N 35°26' E 139°49'1110.7
2016-Jun-19 02:33N 35°16' E 139°47'1111.4
2016-Jun-19 01:33N 35°04' E 139°45'16 7.4
2016-Jun-18 23:23N 34°55' E 140°01'910.9
2016-Jun-18 22:34N 34°60' E 140°09'1210.7
2016-Jun-18 21:29N 35°07' E 140°21'1010.4
2016-Jun-18 20:33N 35°13' E 140°29'1211.6
2016-Jun-18 19:33N 35°23' E 140°38'1111.5
2016-Jun-18 18:33N 35°32' E 140°47'1211.2
2016-Jun-18 17:31N 35°41' E 140°55'1111.3
2016-Jun-18 16:33N 35°52' E 140°57'1211.7
2016-Jun-18 15:33N 36°03' E 140°58'1211.6
2016-Jun-18 14:33N 36°15' E 140°59'  
Track history (hours):
 
Tides and Currents Weather Stations Pressure Air Temp Water Temp Dewpoint Dewpoint Depression Visibility Wind Speed Wind Dir Waves Ship Positions

Hayase Maru

Last reported at 2016-Jun-25 13:28 UTC. Time now 2016-Jun-25 14:20 UTC.
Position N 35°00' E 139°50'.

Length 73 m; draft 4 m.

Type: Ship. MMSI: 431000395.

Date/timePositionNaut miles runAvg speedWind from/ knotsBaromVisibWave heightAir tempDewpointWater temp
2016-Jun-25 13:28N 35°00' E 139°50'0 0.0
2016-Jun-25 12:07N 35°00' E 139°50'0 0.0
2016-Jun-25 11:33N 35°00' E 139°50'0 0.0
2016-Jun-25 09:10N 35°00' E 139°50'0 0.0
2016-Jun-25 08:05N 35°00' E 139°50'0 0.0
2016-Jun-25 04:14N 35°00' E 139°50'0 0.0
2016-Jun-25 01:17N 35°00' E 139°50'0 0.0
2016-Jun-24 21:26N 35°00' E 139°50'0 0.0
2016-Jun-24 20:32N 35°00' E 139°50'0 0.0
2016-Jun-24 19:31N 35°00' E 139°50'0 0.0
2016-Jun-24 17:30N 35°00' E 139°50'0 0.0
2016-Jun-24 13:27N 35°00' E 139°50'5 1.6
2016-Jun-24 10:30N 34°59' E 139°45'12 9.7
2016-Jun-24 09:13N 34°53' E 139°57'812.1
2016-Jun-24 08:32N 34°58' E 140°06'4511.1
2016-Jun-24 04:28N 35°30' E 140°44'27 9.3
2016-Jun-24 01:33N 35°57' E 140°44'4 0.2
2016-Jun-23 07:33N 35°56' E 140°40'0 0.0
2016-Jun-22 22:24N 35°56' E 140°40'0 0.0
2016-Jun-22 21:33N 35°56' E 140°40'33 7.9
2016-Jun-22 17:26N 35°23' E 140°38'2812.4
2016-Jun-22 15:08N 35°02' E 140°14'1113.2
2016-Jun-22 14:19N 34°56' E 140°03'17 8.2
2016-Jun-22 12:14N 35°03' E 139°44'811.9
2016-Jun-22 11:33N 35°11' E 139°46'1110.7
2016-Jun-22 10:34N 35°21' E 139°42'1211.5
2016-Jun-22 09:33N 35°30' E 139°51'1110.8
2016-Jun-22 08:34N 35°40' E 139°57'1 0.6
2016-Jun-22 07:04N 35°41' E 139°57'0 0.2
2016-Jun-22 06:33N 35°41' E 139°58'3 3.2
2016-Jun-22 05:29N 35°37' E 139°58'0 0.0
2016-Jun-22 04:29N 35°37' E 139°58'4 4.0
2016-Jun-22 03:33N 35°34' E 139°56'1110.9
2016-Jun-22 02:33N 35°24' E 139°50'3 0.2
2016-Jun-21 13:31N 35°21' E 139°51'0 0.2
2016-Jun-21 11:14N 35°22' E 139°51'0 0.0
2016-Jun-21 10:32N 35°22' E 139°51'0 0.0
2016-Jun-21 09:29N 35°22' E 139°51'0 0.0
2016-Jun-21 08:32N 35°22' E 139°51'0 0.0
2016-Jun-21 07:32N 35°22' E 139°51'0 0.0
2016-Jun-21 04:29N 35°22' E 139°51'0 0.0
2016-Jun-21 03:32N 35°22' E 139°51'1 0.8
2016-Jun-21 02:33N 35°22' E 139°50'1211.8
2016-Jun-21 01:33N 35°33' E 139°54'7 5.3
2016-Jun-21 00:10N 35°40' E 139°56'0 0.0
2016-Jun-20 23:22N 35°40' E 139°56'0 0.0
2016-Jun-20 22:28N 35°40' E 139°56'0 0.0
2016-Jun-20 21:16N 35°40' E 139°56'0 0.0
2016-Jun-20 20:22N 35°40' E 139°56'0 0.0
2016-Jun-20 19:28N 35°40' E 139°56'0 0.0
2016-Jun-20 18:22N 35°40' E 139°56'0 0.0
2016-Jun-20 17:28N 35°40' E 139°56'0 0.0
2016-Jun-20 16:28N 35°40' E 139°56'0 0.0
2016-Jun-20 14:28N 35°40' E 139°56'0 0.0
2016-Jun-20 13:28N 35°40' E 139°56'0 0.0
2016-Jun-20 12:16N 35°40' E 139°56'0 0.0
2016-Jun-20 11:28N 35°40' E 139°56'0 0.0
2016-Jun-20 10:28N 35°40' E 139°56'0 0.0
2016-Jun-20 09:16N 35°40' E 139°56'0 0.0
2016-Jun-20 07:28N 35°40' E 139°56'0 0.1
2016-Jun-20 06:31N 35°40' E 139°56'0 0.0
2016-Jun-20 05:28N 35°40' E 139°56'0 0.0
2016-Jun-20 04:31N 35°40' E 139°56'0 0.0
2016-Jun-20 03:28N 35°40' E 139°56'0 0.0
2016-Jun-20 02:25N 35°40' E 139°56'0 0.0
2016-Jun-20 01:22N 35°40' E 139°56'0 0.0
2016-Jun-20 00:22N 35°40' E 139°56'0 0.0
2016-Jun-19 23:28N 35°40' E 139°56'1 0.9
2016-Jun-19 22:33N 35°40' E 139°57'3 2.2
2016-Jun-19 21:20N 35°37' E 139°58'0 0.0
2016-Jun-19 20:32N 35°37' E 139°58'0 0.0
2016-Jun-19 19:32N 35°37' E 139°58'0 0.0
2016-Jun-19 18:20N 35°37' E 139°58'0 0.0
2016-Jun-19 17:32N 35°37' E 139°58'0 0.0
2016-Jun-19 16:32N 35°37' E 139°58'0 0.0
2016-Jun-19 15:32N 35°37' E 139°58'0 0.0
2016-Jun-19 14:26N 35°37' E 139°58'0 0.0
2016-Jun-19 13:32N 35°37' E 139°58'0 0.0
2016-Jun-19 12:20N 35°37' E 139°58'0 0.0
2016-Jun-19 11:32N 35°37' E 139°58'0 0.0
2016-Jun-19 10:32N 35°37' E 139°58'0 0.0
2016-Jun-19 09:29N 35°37' E 139°58'0 0.0
2016-Jun-19 08:14N 35°37' E 139°58'0 0.0
2016-Jun-19 07:29N 35°37' E 139°58'0 0.0
2016-Jun-19 06:32N 35°37' E 139°58'1 0.7
2016-Jun-19 04:33N 35°36' E 139°57'1212.1
2016-Jun-19 03:33N 35°26' E 139°49'1110.7
2016-Jun-19 02:33N 35°16' E 139°47'1111.4
2016-Jun-19 01:33N 35°04' E 139°45'16 7.4
2016-Jun-18 23:23N 34°55' E 140°01'910.9
2016-Jun-18 22:34N 34°60' E 140°09'1210.7
2016-Jun-18 21:29N 35°07' E 140°21'1010.4
2016-Jun-18 20:33N 35°13' E 140°29'1211.6
2016-Jun-18 19:33N 35°23' E 140°38'1111.5
2016-Jun-18 18:33N 35°32' E 140°47'1211.2
2016-Jun-18 17:31N 35°41' E 140°55'1111.3
2016-Jun-18 16:33N 35°52' E 140°57'1211.7
2016-Jun-18 15:33N 36°03' E 140°58'1211.6
2016-Jun-18 14:33N 36°15' E 140°59'  

Dump ship's entire track history